Stottfjord — LMCE — position and weather

sailwx.info

Track history (hours):
 
Tides and Currents Weather Stations Pressure Air Temp Water Temp Dewpoint Dewpoint Depression Visibility Wind Speed Wind Dir Waves Ship Positions

Stottfjord

Last reported at 2017-May-19 16:07 UTC. Time now 2017-May-29 02:10 UTC.
Position N 69°16' E 017°58'.
Warning: this ship's position is 9 days out of date.

Length 28 m; draft 5.3 m.

Type: Fishing. MMSI: 257580600.

Date/timePositionNaut miles runAvg speedWind from/ knotsBaromVisibWave heightAir tempDewpointWater temp
2017-May-19 16:07N 69°16' E 017°58'1 9.3
2017-May-19 15:59N 69°15' E 017°58'4 7.7
2017-May-19 15:30N 69°11' E 017°60'5 9.3
2017-May-19 14:59N 69°09' E 017°48'5 9.4
2017-May-19 14:30N 69°07' E 017°36'120 8.6
2017-May-19 00:34N 67°29' E 014°29'1 9.4
2017-May-19 00:30N 67°29' E 014°28'5 9.3
2017-May-19 00:00N 67°24' E 014°26'5 9.1
2017-May-18 23:30N 67°20' E 014°23'2 4.8
2017-May-18 23:00N 67°17' E 014°23'2 3.0
2017-May-18 22:30N 67°17' E 014°20'4 8.9
2017-May-18 22:00N 67°13' E 014°12'5 9.2
2017-May-18 21:30N 67°10' E 014°04'5 9.4
2017-May-18 21:00N 67°06' E 013°57'7 9.3
2017-May-18 20:18N 67°02' E 013°45'3 9.3
2017-May-18 19:56N 66°60' E 013°38'4 9.1
2017-May-18 19:30N 66°57' E 013°30'3 0.3
2017-May-18 11:34N 66°55' E 013°30'2 9.3
2017-May-18 11:21N 66°57' E 013°29'3 9.2
2017-May-18 11:00N 66°59' E 013°35'5 9.4
2017-May-18 10:30N 67°02' E 013°45'5 9.5
2017-May-18 10:00N 67°05' E 013°54'5 9.4
2017-May-18 09:30N 67°08' E 014°02'5 9.4
2017-May-18 09:00N 67°12' E 014°09'5 9.4
2017-May-18 08:30N 67°16' E 014°17'3 6.0
2017-May-18 08:00N 67°17' E 014°23'0 0.0
2017-May-18 07:30N 67°17' E 014°23'0 0.0
2017-May-18 07:00N 67°17' E 014°23'0 0.0
2017-May-18 06:30N 67°17' E 014°23'0 0.0
2017-May-18 06:00N 67°17' E 014°23'0 0.0
2017-May-18 05:30N 67°17' E 014°23'0 0.0
2017-May-18 05:00N 67°17' E 014°23'0 0.0
2017-May-18 04:30N 67°17' E 014°23'0 0.0
2017-May-18 04:00N 67°17' E 014°23'0 0.0
2017-May-18 03:30N 67°17' E 014°23'0 0.0
2017-May-18 03:00N 67°17' E 014°23'0 0.0
2017-May-18 02:30N 67°17' E 014°23'0 0.0
2017-May-18 02:00N 67°17' E 014°23'0 0.0
2017-May-18 01:30N 67°17' E 014°23'0 0.0
2017-May-18 01:00N 67°17' E 014°23'0 0.0
2017-May-18 00:30N 67°17' E 014°23'0 0.0
2017-May-18 00:00N 67°17' E 014°23'0 0.0
2017-May-17 23:30N 67°17' E 014°23'0 0.0
2017-May-17 23:00N 67°17' E 014°23'0 0.0
2017-May-17 22:30N 67°17' E 014°23'0 0.0
2017-May-17 22:00N 67°17' E 014°23'0 0.0
2017-May-17 21:30N 67°17' E 014°23'0 0.0
2017-May-17 21:00N 67°17' E 014°23'0 0.0
2017-May-17 20:30N 67°17' E 014°23'0 0.0
2017-May-17 20:00N 67°17' E 014°23'0 0.0
2017-May-17 19:30N 67°17' E 014°23'0 0.0
2017-May-17 19:00N 67°17' E 014°23'0 0.0
2017-May-17 18:30N 67°17' E 014°23'0 0.0
2017-May-17 18:00N 67°17' E 014°23'0 0.0
2017-May-17 17:30N 67°17' E 014°23'0 0.0
2017-May-17 17:00N 67°17' E 014°23'0 0.0
2017-May-17 16:30N 67°17' E 014°23'0 0.0
2017-May-17 16:00N 67°17' E 014°23'0 0.0
2017-May-17 15:30N 67°17' E 014°23'0 0.0
2017-May-17 15:00N 67°17' E 014°23'0 0.0
2017-May-17 14:30N 67°17' E 014°23'0 0.0
2017-May-17 13:30N 67°17' E 014°23'0 0.0
2017-May-17 13:00N 67°17' E 014°23'0 0.0
2017-May-17 12:30N 67°17' E 014°23'0 0.0
2017-May-17 12:00N 67°17' E 014°23'0 0.0
2017-May-17 11:30N 67°17' E 014°23'0 0.0
2017-May-17 11:00N 67°17' E 014°23'0 0.0
2017-May-17 10:30N 67°17' E 014°23'0 0.0
2017-May-17 10:00N 67°17' E 014°23'0 0.0
2017-May-17 09:30N 67°17' E 014°23'0 0.0
2017-May-17 09:00N 67°17' E 014°23'0 0.0
2017-May-17 08:30N 67°17' E 014°23'0 0.0
2017-May-17 08:00N 67°17' E 014°23'0 0.0
2017-May-17 07:30N 67°17' E 014°23'0 0.0
2017-May-17 07:00N 67°17' E 014°23'0 0.0
2017-May-17 06:30N 67°17' E 014°23'0 0.0
2017-May-17 05:51N 67°17' E 014°23'0 0.0
2017-May-17 05:16N 67°17' E 014°23'0 0.0
2017-May-17 04:59N 67°17' E 014°23'0 0.0
2017-May-17 04:25N 67°17' E 014°23'0 0.0
2017-May-17 03:58N 67°17' E 014°23'0 0.0
2017-May-17 03:30N 67°17' E 014°23'0 0.0
2017-May-17 02:59N 67°17' E 014°23'0 0.0
2017-May-17 00:02N 67°17' E 014°23'0 0.0
2017-May-16 23:54N 67°17' E 014°23'0 0.0
2017-May-16 23:26N 67°17' E 014°23'0 0.0
2017-May-16 22:49N 67°17' E 014°23'0 0.0
2017-May-16 22:30N 67°17' E 014°23'0 0.0
2017-May-16 21:44N 67°17' E 014°23'0 0.0
2017-May-16 21:26N 67°17' E 014°23'0 0.0
2017-May-16 20:52N 67°17' E 014°23'0 0.0
2017-May-16 20:29N 67°17' E 014°23'0 0.0
2017-May-16 19:58N 67°17' E 014°23'0 0.0
2017-May-16 19:27N 67°17' E 014°23'0 0.0
2017-May-16 18:57N 67°17' E 014°23'0 0.0
2017-May-16 18:25N 67°17' E 014°23'0 0.0
2017-May-16 17:56N 67°17' E 014°23'0 0.0
2017-May-16 17:19N 67°17' E 014°23'0 0.0
2017-May-16 17:00N 67°17' E 014°23'0 0.0
2017-May-16 16:24N 67°17' E 014°23'0 0.0
2017-May-16 15:58N 67°17' E 014°23'0 0.0
2017-May-16 15:25N 67°17' E 014°23'0 0.0
2017-May-16 15:00N 67°17' E 014°23'0 0.0
2017-May-16 13:59N 67°17' E 014°23'0 0.0
2017-May-16 13:26N 67°17' E 014°23'0 0.0
2017-May-16 12:32N 67°17' E 014°23'0 0.0
2017-May-16 12:29N 67°17' E 014°23'0 0.0
2017-May-16 11:56N 67°17' E 014°23'0 0.0
2017-May-16 10:22N 67°17' E 014°23'0 0.0
2017-May-16 08:43N 67°17' E 014°23'0 0.0
2017-May-16 08:18N 67°17' E 014°23'0 0.0
2017-May-16 07:46N 67°17' E 014°23'0 0.0
2017-May-16 07:28N 67°17' E 014°23'0 0.0
2017-May-16 06:58N 67°17' E 014°23'0 0.0
2017-May-16 06:16N 67°17' E 014°23'0 0.0
2017-May-16 05:48N 67°17' E 014°23'0 0.0
2017-May-16 05:14N 67°17' E 014°23'0 0.0
2017-May-16 04:54N 67°17' E 014°23'0 0.0
2017-May-16 04:29N 67°17' E 014°23'0 0.0
2017-May-16 03:58N 67°17' E 014°23'0 0.0
2017-May-16 03:30N 67°17' E 014°23'0 0.0
2017-May-16 02:59N 67°17' E 014°23'0 0.0
2017-May-16 02:25N 67°17' E 014°23'0 0.0
2017-May-16 01:57N 67°17' E 014°23'0 0.0
2017-May-16 01:30N 67°17' E 014°23'0 0.0
2017-May-16 01:00N 67°17' E 014°23'0 0.0
2017-May-16 00:30N 67°17' E 014°23'0 0.0
2017-May-16 00:00N 67°17' E 014°23'0 0.0
2017-May-15 23:28N 67°17' E 014°23'0 0.0
2017-May-15 22:48N 67°17' E 014°23'0 0.0
2017-May-15 22:28N 67°17' E 014°23'0 0.0
2017-May-15 21:44N 67°17' E 014°23'0 0.0
2017-May-15 21:29N 67°17' E 014°23'0 0.0
2017-May-15 20:54N 67°17' E 014°23'0 0.0
2017-May-15 20:30N 67°17' E 014°23'0 0.0
2017-May-15 19:57N 67°17' E 014°23'0 0.0
2017-May-15 19:28N 67°17' E 014°23'0 0.0
2017-May-15 18:58N 67°17' E 014°23'0 0.0
2017-May-15 18:23N 67°17' E 014°23'0 0.0
2017-May-15 17:59N 67°17' E 014°23'0 0.0
2017-May-15 17:27N 67°17' E 014°23'0 0.0
2017-May-15 16:50N 67°17' E 014°23'0 0.0
2017-May-15 16:28N 67°17' E 014°23'0 0.0
2017-May-15 16:00N 67°17' E 014°23'0 0.0
2017-May-15 15:28N 67°17' E 014°23'0 0.0
2017-May-15 15:00N 67°17' E 014°23'0 0.0
2017-May-15 13:55N 67°17' E 014°23'0 0.0
2017-May-15 13:30N 67°17' E 014°23'0 0.0
2017-May-15 12:59N 67°17' E 014°23'0 0.0
2017-May-15 10:26N 67°17' E 014°23'0 0.0
2017-May-15 09:55N 67°17' E 014°23'0 0.0
2017-May-15 09:24N 67°17' E 014°23'0 0.0
2017-May-15 08:41N 67°17' E 014°23'0 0.0
2017-May-15 08:12N 67°17' E 014°23'0 0.0
2017-May-15 08:00N 67°17' E 014°23'0 0.0
2017-May-15 07:30N 67°17' E 014°23'0 0.0
2017-May-15 07:00N 67°17' E 014°23'0 0.0
2017-May-15 06:30N 67°17' E 014°23'0 0.0
2017-May-15 06:00N 67°17' E 014°23'0 0.0
2017-May-15 05:30N 67°17' E 014°23'0 0.0
2017-May-15 05:00N 67°17' E 014°23'0 0.0
2017-May-15 04:30N 67°17' E 014°23'0 0.0
2017-May-15 04:00N 67°17' E 014°23'0 0.0
2017-May-15 03:30N 67°17' E 014°23'0 0.0
2017-May-15 03:00N 67°17' E 014°23'0 0.0
2017-May-15 02:30N 67°17' E 014°23'0 0.0
2017-May-15 02:00N 67°17' E 014°23'0 0.0
2017-May-15 01:30N 67°17' E 014°23'0 0.0
2017-May-15 01:00N 67°17' E 014°23'0 0.0
2017-May-15 00:30N 67°17' E 014°23'0 0.0
2017-May-15 00:00N 67°17' E 014°23'0 0.0
2017-May-14 23:30N 67°17' E 014°23'0 0.0
2017-May-14 23:00N 67°17' E 014°23'0 0.0
2017-May-14 22:30N 67°17' E 014°23'0 0.0
2017-May-14 22:00N 67°17' E 014°23'0 0.0
2017-May-14 21:30N 67°17' E 014°23'0 0.0
2017-May-14 21:00N 67°17' E 014°23'0 0.0
2017-May-14 20:30N 67°17' E 014°23'0 0.0
2017-May-14 20:00N 67°17' E 014°23'0 0.0
2017-May-14 19:30N 67°17' E 014°23'0 0.0
2017-May-14 19:00N 67°17' E 014°23'0 0.0
2017-May-14 18:30N 67°17' E 014°23'0 0.0
2017-May-14 18:00N 67°17' E 014°23'0 0.0
2017-May-14 17:30N 67°17' E 014°23'0 0.0
2017-May-14 17:00N 67°17' E 014°23'0 0.0
2017-May-14 16:30N 67°17' E 014°23'0 0.0
2017-May-14 16:00N 67°17' E 014°23'0 0.0
2017-May-14 15:30N 67°17' E 014°23'0 0.0
2017-May-14 15:00N 67°17' E 014°23'0 0.0
2017-May-14 14:30N 67°17' E 014°23'0 0.0
2017-May-14 13:30N 67°17' E 014°23'0 0.0
2017-May-14 13:00N 67°17' E 014°23'0 0.0
2017-May-14 12:30N 67°17' E 014°23'0 0.0
2017-May-14 12:00N 67°17' E 014°23'0 0.0
2017-May-14 11:30N 67°17' E 014°23'0 0.0
2017-May-14 11:00N 67°17' E 014°23'0 0.0
2017-May-14 10:30N 67°17' E 014°23'0 0.0
2017-May-14 10:00N 67°17' E 014°23'0 0.0
2017-May-14 09:30N 67°17' E 014°23'0 0.0
2017-May-14 09:00N 67°17' E 014°23'0 0.0
2017-May-14 08:30N 67°17' E 014°23'0 0.0
2017-May-14 08:00N 67°17' E 014°23'0 0.0
2017-May-14 07:30N 67°17' E 014°23'0 0.0
2017-May-14 07:00N 67°17' E 014°23'0 0.0
2017-May-14 06:30N 67°17' E 014°23'0 0.0
2017-May-14 06:00N 67°17' E 014°23'0 0.0
2017-May-14 05:30N 67°17' E 014°23'0 0.0
2017-May-14 05:00N 67°17' E 014°23'0 0.0
2017-May-14 04:30N 67°17' E 014°23'0 0.0
2017-May-14 04:00N 67°17' E 014°23'0 0.0
2017-May-14 03:30N 67°17' E 014°23'0 0.0
2017-May-14 03:00N 67°17' E 014°23'0 0.0
2017-May-14 02:30N 67°17' E 014°23'0 0.0
2017-May-14 02:00N 67°17' E 014°23'0 0.0
2017-May-14 01:30N 67°17' E 014°23'0 0.0
2017-May-14 01:00N 67°17' E 014°23'0 0.0
2017-May-14 00:30N 67°17' E 014°23'0 0.0
2017-May-14 00:00N 67°17' E 014°23'0 0.0
2017-May-13 23:30N 67°17' E 014°23'0 0.0
2017-May-13 23:00N 67°17' E 014°23'0 0.0
2017-May-13 22:30N 67°17' E 014°23'0 0.0
2017-May-13 22:00N 67°17' E 014°23'0 0.0
2017-May-13 21:30N 67°17' E 014°23'0 0.0
2017-May-13 21:00N 67°17' E 014°23'0 0.0
2017-May-13 20:30N 67°17' E 014°23'0 0.0
2017-May-13 20:00N 67°17' E 014°23'0 0.0
2017-May-13 19:30N 67°17' E 014°23'0 0.0
2017-May-13 19:00N 67°17' E 014°23'0 0.0
2017-May-13 18:30N 67°17' E 014°23'0 0.0
2017-May-13 18:00N 67°17' E 014°23'0 0.0
2017-May-13 17:30N 67°17' E 014°23'0 0.0
2017-May-13 17:00N 67°17' E 014°23'0 0.0
2017-May-13 16:30N 67°17' E 014°23'0 0.0
2017-May-13 16:00N 67°17' E 014°23'0 0.0
2017-May-13 15:30N 67°17' E 014°23'0 0.0
2017-May-13 15:00N 67°17' E 014°23'0 0.0
2017-May-13 14:30N 67°17' E 014°23'0 0.0
2017-May-13 13:30N 67°17' E 014°23'0 0.0
2017-May-13 13:00N 67°17' E 014°23'0 0.0
2017-May-13 12:30N 67°17' E 014°23'0 0.0
2017-May-13 12:00N 67°17' E 014°23'0 0.0
2017-May-13 11:30N 67°17' E 014°23'0 0.0
2017-May-13 11:00N 67°17' E 014°23'0 0.0
2017-May-13 10:30N 67°17' E 014°23'0 0.0
2017-May-13 10:00N 67°17' E 014°23'0 0.0
2017-May-13 09:30N 67°17' E 014°23'0 0.0
2017-May-13 09:00N 67°17' E 014°23'0 0.0
2017-May-13 08:30N 67°17' E 014°23'0 0.0
2017-May-13 08:00N 67°17' E 014°23'0 0.0
2017-May-13 07:30N 67°17' E 014°23'0 0.0
2017-May-13 07:00N 67°17' E 014°23'0 0.0
2017-May-13 06:30N 67°17' E 014°23'0 0.0
2017-May-13 06:00N 67°17' E 014°23'0 0.0
2017-May-13 05:30N 67°17' E 014°23'0 0.0
2017-May-13 05:00N 67°17' E 014°23'0 0.0
2017-May-13 04:30N 67°17' E 014°23'0 0.0
2017-May-13 04:00N 67°17' E 014°23'0 0.0
2017-May-13 03:30N 67°17' E 014°23'0 0.0
2017-May-13 03:00N 67°17' E 014°23'0 0.0
2017-May-13 02:30N 67°17' E 014°23'0 0.0
2017-May-13 02:00N 67°17' E 014°23'0 0.0
2017-May-13 01:30N 67°17' E 014°23'0 0.0
2017-May-13 01:00N 67°17' E 014°23'0 0.0
2017-May-13 00:30N 67°17' E 014°23'0 0.0
2017-May-13 00:00N 67°17' E 014°23'0 0.0
2017-May-12 23:30N 67°17' E 014°23'0 0.0
2017-May-12 23:00N 67°17' E 014°23'0 0.0
2017-May-12 22:30N 67°17' E 014°23'0 0.0
2017-May-12 22:00N 67°17' E 014°23'0 0.0
2017-May-12 21:30N 67°17' E 014°23'0 0.0
2017-May-12 21:00N 67°17' E 014°23'0 0.0
2017-May-12 20:30N 67°17' E 014°23'0 0.0
2017-May-12 20:00N 67°17' E 014°23'0 0.0
2017-May-12 19:30N 67°17' E 014°23'0 0.0
2017-May-12 19:00N 67°17' E 014°23'0 0.0
2017-May-12 18:30N 67°17' E 014°23'0 0.0
2017-May-12 18:00N 67°17' E 014°23'0 0.0
2017-May-12 17:30N 67°17' E 014°23'0 0.0
2017-May-12 17:00N 67°17' E 014°23'0 0.0
2017-May-12 16:30N 67°17' E 014°23'0 0.0
2017-May-12 16:00N 67°17' E 014°23'0 0.0
2017-May-12 15:30N 67°17' E 014°23'0 0.0
2017-May-12 15:00N 67°17' E 014°23'0 0.0
2017-May-12 14:30N 67°17' E 014°23'0 0.0
2017-May-12 13:30N 67°17' E 014°23'0 0.0
2017-May-12 13:00N 67°17' E 014°23'0 0.0
2017-May-12 12:30N 67°17' E 014°23'0 0.0
2017-May-12 12:00N 67°17' E 014°23'0 0.0
2017-May-12 11:30N 67°17' E 014°23'0 0.0
2017-May-12 11:00N 67°17' E 014°23'0 0.0
2017-May-12 10:30N 67°17' E 014°23'0 0.0
2017-May-12 10:00N 67°17' E 014°23'0 0.0
2017-May-12 09:30N 67°17' E 014°23'0 0.0
2017-May-12 09:00N 67°17' E 014°23'0 0.0
2017-May-12 08:30N 67°17' E 014°23'0 0.0
2017-May-12 08:00N 67°17' E 014°23'0 0.0
2017-May-12 07:30N 67°17' E 014°23'0 0.0
2017-May-12 07:00N 67°17' E 014°23'0 0.0
2017-May-12 06:30N 67°17' E 014°23'0 0.0
2017-May-12 06:00N 67°17' E 014°23'0 0.0
2017-May-12 05:30N 67°17' E 014°23'0 0.0
2017-May-12 05:00N 67°17' E 014°23'0 0.0
2017-May-12 04:30N 67°17' E 014°23'0 0.0
2017-May-12 04:00N 67°17' E 014°23'0 0.0
2017-May-12 03:30N 67°17' E 014°23'0 0.0
2017-May-12 03:00N 67°17' E 014°23'0 0.0
2017-May-12 02:30N 67°17' E 014°23'0 0.0
2017-May-12 02:00N 67°17' E 014°23'0 0.0
2017-May-12 01:30N 67°17' E 014°23'0 0.0
2017-May-12 01:00N 67°17' E 014°23'0 0.0
2017-May-12 00:30N 67°17' E 014°23'0 0.0
2017-May-12 00:00N 67°17' E 014°23'0 0.0
2017-May-11 23:30N 67°17' E 014°23'0 0.0
2017-May-11 23:00N 67°17' E 014°23'0 0.0
2017-May-11 22:30N 67°17' E 014°23'0 0.0
2017-May-11 22:00N 67°17' E 014°23'0 0.0
2017-May-11 21:30N 67°17' E 014°23'0 0.0
2017-May-11 21:00N 67°17' E 014°23'0 0.0
2017-May-11 20:30N 67°17' E 014°23'0 0.0
2017-May-11 20:00N 67°17' E 014°23'0 0.0
2017-May-11 19:30N 67°17' E 014°23'0 0.0
2017-May-11 19:00N 67°17' E 014°23'0 0.0
2017-May-11 18:30N 67°17' E 014°23'0 0.0
2017-May-11 18:00N 67°17' E 014°23'0 0.0
2017-May-11 17:30N 67°17' E 014°23'0 0.0
2017-May-11 17:00N 67°17' E 014°23'0 0.0
2017-May-11 16:30N 67°17' E 014°23'0 0.0
2017-May-11 16:00N 67°17' E 014°23'0 0.0
2017-May-11 15:30N 67°17' E 014°23'0 0.0
2017-May-11 15:00N 67°17' E 014°23'0 0.0
2017-May-11 14:00N 67°17' E 014°23'0 0.7
2017-May-11 13:31N 67°17' E 014°23'1 2.1
2017-May-11 13:00N 67°17' E 014°20'1 1.8
2017-May-11 12:30N 67°17' E 014°22'0 0.2
2017-May-11 12:01N 67°17' E 014°22'1 2.2
2017-May-11 11:30N 67°17' E 014°20'0 0.2
2017-May-11 11:01N 67°17' E 014°20'0 0.4
2017-May-11 10:31N 67°17' E 014°20'2 3.6
2017-May-11 10:00N 67°18' E 014°23'5 9.4
2017-May-11 09:30N 67°23' E 014°25'6 9.2
2017-May-11 08:50N 67°29' E 014°28'3 9.4
2017-May-11 08:28N 67°32' E 014°30'10 9.2
2017-May-11 07:24N 67°42' E 014°31'105 7.7
2017-May-10 17:44N 69°05' E 017°25'2 9.7
2017-May-10 17:30N 69°06' E 017°31'5 9.9
2017-May-10 17:00N 69°08' E 017°44'5 9.9
2017-May-10 16:30N 69°10' E 017°56'4 7.3
2017-May-10 16:00N 69°14' E 017°57'5 9.5
2017-May-10 15:29N 69°19' E 017°58'  
Track history (hours):
 
Tides and Currents Weather Stations Pressure Air Temp Water Temp Dewpoint Dewpoint Depression Visibility Wind Speed Wind Dir Waves Ship Positions

Stottfjord

Last reported at 2017-May-19 16:07 UTC. Time now 2017-May-29 02:10 UTC.
Position N 69°16' E 017°58'.
Warning: this ship's position is 9 days out of date.

Length 28 m; draft 5.3 m.

Type: Fishing. MMSI: 257580600.

Date/timePositionNaut miles runAvg speedWind from/ knotsBaromVisibWave heightAir tempDewpointWater temp
2017-May-19 16:07N 69°16' E 017°58'1 9.3
2017-May-19 15:59N 69°15' E 017°58'4 7.7
2017-May-19 15:30N 69°11' E 017°60'5 9.3
2017-May-19 14:59N 69°09' E 017°48'5 9.4
2017-May-19 14:30N 69°07' E 017°36'120 8.6
2017-May-19 00:34N 67°29' E 014°29'1 9.4
2017-May-19 00:30N 67°29' E 014°28'5 9.3
2017-May-19 00:00N 67°24' E 014°26'5 9.1
2017-May-18 23:30N 67°20' E 014°23'2 4.8
2017-May-18 23:00N 67°17' E 014°23'2 3.0
2017-May-18 22:30N 67°17' E 014°20'4 8.9
2017-May-18 22:00N 67°13' E 014°12'5 9.2
2017-May-18 21:30N 67°10' E 014°04'5 9.4
2017-May-18 21:00N 67°06' E 013°57'7 9.3
2017-May-18 20:18N 67°02' E 013°45'3 9.3
2017-May-18 19:56N 66°60' E 013°38'4 9.1
2017-May-18 19:30N 66°57' E 013°30'3 0.3
2017-May-18 11:34N 66°55' E 013°30'2 9.3
2017-May-18 11:21N 66°57' E 013°29'3 9.2
2017-May-18 11:00N 66°59' E 013°35'5 9.4
2017-May-18 10:30N 67°02' E 013°45'5 9.5
2017-May-18 10:00N 67°05' E 013°54'5 9.4
2017-May-18 09:30N 67°08' E 014°02'5 9.4
2017-May-18 09:00N 67°12' E 014°09'5 9.4
2017-May-18 08:30N 67°16' E 014°17'3 6.0
2017-May-18 08:00N 67°17' E 014°23'0 0.0
2017-May-18 07:30N 67°17' E 014°23'0 0.0
2017-May-18 07:00N 67°17' E 014°23'0 0.0
2017-May-18 06:30N 67°17' E 014°23'0 0.0
2017-May-18 06:00N 67°17' E 014°23'0 0.0
2017-May-18 05:30N 67°17' E 014°23'0 0.0
2017-May-18 05:00N 67°17' E 014°23'0 0.0
2017-May-18 04:30N 67°17' E 014°23'0 0.0
2017-May-18 04:00N 67°17' E 014°23'0 0.0
2017-May-18 03:30N 67°17' E 014°23'0 0.0
2017-May-18 03:00N 67°17' E 014°23'0 0.0
2017-May-18 02:30N 67°17' E 014°23'0 0.0
2017-May-18 02:00N 67°17' E 014°23'0 0.0
2017-May-18 01:30N 67°17' E 014°23'0 0.0
2017-May-18 01:00N 67°17' E 014°23'0 0.0
2017-May-18 00:30N 67°17' E 014°23'0 0.0
2017-May-18 00:00N 67°17' E 014°23'0 0.0
2017-May-17 23:30N 67°17' E 014°23'0 0.0
2017-May-17 23:00N 67°17' E 014°23'0 0.0
2017-May-17 22:30N 67°17' E 014°23'0 0.0
2017-May-17 22:00N 67°17' E 014°23'0 0.0
2017-May-17 21:30N 67°17' E 014°23'0 0.0
2017-May-17 21:00N 67°17' E 014°23'0 0.0
2017-May-17 20:30N 67°17' E 014°23'0 0.0
2017-May-17 20:00N 67°17' E 014°23'0 0.0
2017-May-17 19:30N 67°17' E 014°23'0 0.0
2017-May-17 19:00N 67°17' E 014°23'0 0.0
2017-May-17 18:30N 67°17' E 014°23'0 0.0
2017-May-17 18:00N 67°17' E 014°23'0 0.0
2017-May-17 17:30N 67°17' E 014°23'0 0.0
2017-May-17 17:00N 67°17' E 014°23'0 0.0
2017-May-17 16:30N 67°17' E 014°23'0 0.0
2017-May-17 16:00N 67°17' E 014°23'0 0.0
2017-May-17 15:30N 67°17' E 014°23'0 0.0
2017-May-17 15:00N 67°17' E 014°23'0 0.0
2017-May-17 14:30N 67°17' E 014°23'0 0.0
2017-May-17 13:30N 67°17' E 014°23'0 0.0
2017-May-17 13:00N 67°17' E 014°23'0 0.0
2017-May-17 12:30N 67°17' E 014°23'0 0.0
2017-May-17 12:00N 67°17' E 014°23'0 0.0
2017-May-17 11:30N 67°17' E 014°23'0 0.0
2017-May-17 11:00N 67°17' E 014°23'0 0.0
2017-May-17 10:30N 67°17' E 014°23'0 0.0
2017-May-17 10:00N 67°17' E 014°23'0 0.0
2017-May-17 09:30N 67°17' E 014°23'0 0.0
2017-May-17 09:00N 67°17' E 014°23'0 0.0
2017-May-17 08:30N 67°17' E 014°23'0 0.0
2017-May-17 08:00N 67°17' E 014°23'0 0.0
2017-May-17 07:30N 67°17' E 014°23'0 0.0
2017-May-17 07:00N 67°17' E 014°23'0 0.0
2017-May-17 06:30N 67°17' E 014°23'0 0.0
2017-May-17 05:51N 67°17' E 014°23'0 0.0
2017-May-17 05:16N 67°17' E 014°23'0 0.0
2017-May-17 04:59N 67°17' E 014°23'0 0.0
2017-May-17 04:25N 67°17' E 014°23'0 0.0
2017-May-17 03:58N 67°17' E 014°23'0 0.0
2017-May-17 03:30N 67°17' E 014°23'0 0.0
2017-May-17 02:59N 67°17' E 014°23'0 0.0
2017-May-17 00:02N 67°17' E 014°23'0 0.0
2017-May-16 23:54N 67°17' E 014°23'0 0.0
2017-May-16 23:26N 67°17' E 014°23'0 0.0
2017-May-16 22:49N 67°17' E 014°23'0 0.0
2017-May-16 22:30N 67°17' E 014°23'0 0.0
2017-May-16 21:44N 67°17' E 014°23'0 0.0
2017-May-16 21:26N 67°17' E 014°23'0 0.0
2017-May-16 20:52N 67°17' E 014°23'0 0.0
2017-May-16 20:29N 67°17' E 014°23'0 0.0
2017-May-16 19:58N 67°17' E 014°23'0 0.0
2017-May-16 19:27N 67°17' E 014°23'0 0.0
2017-May-16 18:57N 67°17' E 014°23'0 0.0
2017-May-16 18:25N 67°17' E 014°23'0 0.0
2017-May-16 17:56N 67°17' E 014°23'0 0.0
2017-May-16 17:19N 67°17' E 014°23'0 0.0
2017-May-16 17:00N 67°17' E 014°23'0 0.0
2017-May-16 16:24N 67°17' E 014°23'0 0.0
2017-May-16 15:58N 67°17' E 014°23'0 0.0
2017-May-16 15:25N 67°17' E 014°23'0 0.0
2017-May-16 15:00N 67°17' E 014°23'0 0.0
2017-May-16 13:59N 67°17' E 014°23'0 0.0
2017-May-16 13:26N 67°17' E 014°23'0 0.0
2017-May-16 12:32N 67°17' E 014°23'0 0.0
2017-May-16 12:29N 67°17' E 014°23'0 0.0
2017-May-16 11:56N 67°17' E 014°23'0 0.0
2017-May-16 10:22N 67°17' E 014°23'0 0.0
2017-May-16 08:43N 67°17' E 014°23'0 0.0
2017-May-16 08:18N 67°17' E 014°23'0 0.0
2017-May-16 07:46N 67°17' E 014°23'0 0.0
2017-May-16 07:28N 67°17' E 014°23'0 0.0
2017-May-16 06:58N 67°17' E 014°23'0 0.0
2017-May-16 06:16N 67°17' E 014°23'0 0.0
2017-May-16 05:48N 67°17' E 014°23'0 0.0
2017-May-16 05:14N 67°17' E 014°23'0 0.0
2017-May-16 04:54N 67°17' E 014°23'0 0.0
2017-May-16 04:29N 67°17' E 014°23'0 0.0
2017-May-16 03:58N 67°17' E 014°23'0 0.0
2017-May-16 03:30N 67°17' E 014°23'0 0.0
2017-May-16 02:59N 67°17' E 014°23'0 0.0
2017-May-16 02:25N 67°17' E 014°23'0 0.0
2017-May-16 01:57N 67°17' E 014°23'0 0.0
2017-May-16 01:30N 67°17' E 014°23'0 0.0
2017-May-16 01:00N 67°17' E 014°23'0 0.0
2017-May-16 00:30N 67°17' E 014°23'0 0.0
2017-May-16 00:00N 67°17' E 014°23'0 0.0
2017-May-15 23:28N 67°17' E 014°23'0 0.0
2017-May-15 22:48N 67°17' E 014°23'0 0.0
2017-May-15 22:28N 67°17' E 014°23'0 0.0
2017-May-15 21:44N 67°17' E 014°23'0 0.0
2017-May-15 21:29N 67°17' E 014°23'0 0.0
2017-May-15 20:54N 67°17' E 014°23'0 0.0
2017-May-15 20:30N 67°17' E 014°23'0 0.0
2017-May-15 19:57N 67°17' E 014°23'0 0.0
2017-May-15 19:28N 67°17' E 014°23'0 0.0
2017-May-15 18:58N 67°17' E 014°23'0 0.0
2017-May-15 18:23N 67°17' E 014°23'0 0.0
2017-May-15 17:59N 67°17' E 014°23'0 0.0
2017-May-15 17:27N 67°17' E 014°23'0 0.0
2017-May-15 16:50N 67°17' E 014°23'0 0.0
2017-May-15 16:28N 67°17' E 014°23'0 0.0
2017-May-15 16:00N 67°17' E 014°23'0 0.0
2017-May-15 15:28N 67°17' E 014°23'0 0.0
2017-May-15 15:00N 67°17' E 014°23'0 0.0
2017-May-15 13:55N 67°17' E 014°23'0 0.0
2017-May-15 13:30N 67°17' E 014°23'0 0.0
2017-May-15 12:59N 67°17' E 014°23'0 0.0
2017-May-15 10:26N 67°17' E 014°23'0 0.0
2017-May-15 09:55N 67°17' E 014°23'0 0.0
2017-May-15 09:24N 67°17' E 014°23'0 0.0
2017-May-15 08:41N 67°17' E 014°23'0 0.0
2017-May-15 08:12N 67°17' E 014°23'0 0.0
2017-May-15 08:00N 67°17' E 014°23'0 0.0
2017-May-15 07:30N 67°17' E 014°23'0 0.0
2017-May-15 07:00N 67°17' E 014°23'0 0.0
2017-May-15 06:30N 67°17' E 014°23'0 0.0
2017-May-15 06:00N 67°17' E 014°23'0 0.0
2017-May-15 05:30N 67°17' E 014°23'0 0.0
2017-May-15 05:00N 67°17' E 014°23'0 0.0
2017-May-15 04:30N 67°17' E 014°23'0 0.0
2017-May-15 04:00N 67°17' E 014°23'0 0.0
2017-May-15 03:30N 67°17' E 014°23'0 0.0
2017-May-15 03:00N 67°17' E 014°23'0 0.0
2017-May-15 02:30N 67°17' E 014°23'0 0.0
2017-May-15 02:00N 67°17' E 014°23'0 0.0
2017-May-15 01:30N 67°17' E 014°23'0 0.0
2017-May-15 01:00N 67°17' E 014°23'0 0.0
2017-May-15 00:30N 67°17' E 014°23'0 0.0
2017-May-15 00:00N 67°17' E 014°23'0 0.0
2017-May-14 23:30N 67°17' E 014°23'0 0.0
2017-May-14 23:00N 67°17' E 014°23'0 0.0
2017-May-14 22:30N 67°17' E 014°23'0 0.0
2017-May-14 22:00N 67°17' E 014°23'0 0.0
2017-May-14 21:30N 67°17' E 014°23'0 0.0
2017-May-14 21:00N 67°17' E 014°23'0 0.0
2017-May-14 20:30N 67°17' E 014°23'0 0.0
2017-May-14 20:00N 67°17' E 014°23'0 0.0
2017-May-14 19:30N 67°17' E 014°23'0 0.0
2017-May-14 19:00N 67°17' E 014°23'0 0.0
2017-May-14 18:30N 67°17' E 014°23'0 0.0
2017-May-14 18:00N 67°17' E 014°23'0 0.0
2017-May-14 17:30N 67°17' E 014°23'0 0.0
2017-May-14 17:00N 67°17' E 014°23'0 0.0
2017-May-14 16:30N 67°17' E 014°23'0 0.0
2017-May-14 16:00N 67°17' E 014°23'0 0.0
2017-May-14 15:30N 67°17' E 014°23'0 0.0
2017-May-14 15:00N 67°17' E 014°23'0 0.0
2017-May-14 14:30N 67°17' E 014°23'0 0.0
2017-May-14 13:30N 67°17' E 014°23'0 0.0
2017-May-14 13:00N 67°17' E 014°23'0 0.0
2017-May-14 12:30N 67°17' E 014°23'0 0.0
2017-May-14 12:00N 67°17' E 014°23'0 0.0
2017-May-14 11:30N 67°17' E 014°23'0 0.0
2017-May-14 11:00N 67°17' E 014°23'0 0.0
2017-May-14 10:30N 67°17' E 014°23'0 0.0
2017-May-14 10:00N 67°17' E 014°23'0 0.0
2017-May-14 09:30N 67°17' E 014°23'0 0.0
2017-May-14 09:00N 67°17' E 014°23'0 0.0
2017-May-14 08:30N 67°17' E 014°23'0 0.0
2017-May-14 08:00N 67°17' E 014°23'0 0.0
2017-May-14 07:30N 67°17' E 014°23'0 0.0
2017-May-14 07:00N 67°17' E 014°23'0 0.0
2017-May-14 06:30N 67°17' E 014°23'0 0.0
2017-May-14 06:00N 67°17' E 014°23'0 0.0
2017-May-14 05:30N 67°17' E 014°23'0 0.0
2017-May-14 05:00N 67°17' E 014°23'0 0.0
2017-May-14 04:30N 67°17' E 014°23'0 0.0
2017-May-14 04:00N 67°17' E 014°23'0 0.0
2017-May-14 03:30N 67°17' E 014°23'0 0.0
2017-May-14 03:00N 67°17' E 014°23'0 0.0
2017-May-14 02:30N 67°17' E 014°23'0 0.0
2017-May-14 02:00N 67°17' E 014°23'0 0.0
2017-May-14 01:30N 67°17' E 014°23'0 0.0
2017-May-14 01:00N 67°17' E 014°23'0 0.0
2017-May-14 00:30N 67°17' E 014°23'0 0.0
2017-May-14 00:00N 67°17' E 014°23'0 0.0
2017-May-13 23:30N 67°17' E 014°23'0 0.0
2017-May-13 23:00N 67°17' E 014°23'0 0.0
2017-May-13 22:30N 67°17' E 014°23'0 0.0
2017-May-13 22:00N 67°17' E 014°23'0 0.0
2017-May-13 21:30N 67°17' E 014°23'0 0.0
2017-May-13 21:00N 67°17' E 014°23'0 0.0
2017-May-13 20:30N 67°17' E 014°23'0 0.0
2017-May-13 20:00N 67°17' E 014°23'0 0.0
2017-May-13 19:30N 67°17' E 014°23'0 0.0
2017-May-13 19:00N 67°17' E 014°23'0 0.0
2017-May-13 18:30N 67°17' E 014°23'0 0.0
2017-May-13 18:00N 67°17' E 014°23'0 0.0
2017-May-13 17:30N 67°17' E 014°23'0 0.0
2017-May-13 17:00N 67°17' E 014°23'0 0.0
2017-May-13 16:30N 67°17' E 014°23'0 0.0
2017-May-13 16:00N 67°17' E 014°23'0 0.0
2017-May-13 15:30N 67°17' E 014°23'0 0.0
2017-May-13 15:00N 67°17' E 014°23'0 0.0
2017-May-13 14:30N 67°17' E 014°23'0 0.0
2017-May-13 13:30N 67°17' E 014°23'0 0.0
2017-May-13 13:00N 67°17' E 014°23'0 0.0
2017-May-13 12:30N 67°17' E 014°23'0 0.0
2017-May-13 12:00N 67°17' E 014°23'0 0.0
2017-May-13 11:30N 67°17' E 014°23'0 0.0
2017-May-13 11:00N 67°17' E 014°23'0 0.0
2017-May-13 10:30N 67°17' E 014°23'0 0.0
2017-May-13 10:00N 67°17' E 014°23'0 0.0
2017-May-13 09:30N 67°17' E 014°23'0 0.0
2017-May-13 09:00N 67°17' E 014°23'0 0.0
2017-May-13 08:30N 67°17' E 014°23'0 0.0
2017-May-13 08:00N 67°17' E 014°23'0 0.0
2017-May-13 07:30N 67°17' E 014°23'0 0.0
2017-May-13 07:00N 67°17' E 014°23'0 0.0
2017-May-13 06:30N 67°17' E 014°23'0 0.0
2017-May-13 06:00N 67°17' E 014°23'0 0.0
2017-May-13 05:30N 67°17' E 014°23'0 0.0
2017-May-13 05:00N 67°17' E 014°23'0 0.0
2017-May-13 04:30N 67°17' E 014°23'0 0.0
2017-May-13 04:00N 67°17' E 014°23'0 0.0
2017-May-13 03:30N 67°17' E 014°23'0 0.0
2017-May-13 03:00N 67°17' E 014°23'0 0.0
2017-May-13 02:30N 67°17' E 014°23'0 0.0
2017-May-13 02:00N 67°17' E 014°23'0 0.0
2017-May-13 01:30N 67°17' E 014°23'0 0.0
2017-May-13 01:00N 67°17' E 014°23'0 0.0
2017-May-13 00:30N 67°17' E 014°23'0 0.0
2017-May-13 00:00N 67°17' E 014°23'0 0.0
2017-May-12 23:30N 67°17' E 014°23'0 0.0
2017-May-12 23:00N 67°17' E 014°23'0 0.0
2017-May-12 22:30N 67°17' E 014°23'0 0.0
2017-May-12 22:00N 67°17' E 014°23'0 0.0
2017-May-12 21:30N 67°17' E 014°23'0 0.0
2017-May-12 21:00N 67°17' E 014°23'0 0.0
2017-May-12 20:30N 67°17' E 014°23'0 0.0
2017-May-12 20:00N 67°17' E 014°23'0 0.0
2017-May-12 19:30N 67°17' E 014°23'0 0.0
2017-May-12 19:00N 67°17' E 014°23'0 0.0
2017-May-12 18:30N 67°17' E 014°23'0 0.0
2017-May-12 18:00N 67°17' E 014°23'0 0.0
2017-May-12 17:30N 67°17' E 014°23'0 0.0
2017-May-12 17:00N 67°17' E 014°23'0 0.0
2017-May-12 16:30N 67°17' E 014°23'0 0.0
2017-May-12 16:00N 67°17' E 014°23'0 0.0
2017-May-12 15:30N 67°17' E 014°23'0 0.0
2017-May-12 15:00N 67°17' E 014°23'0 0.0
2017-May-12 14:30N 67°17' E 014°23'0 0.0
2017-May-12 13:30N 67°17' E 014°23'0 0.0
2017-May-12 13:00N 67°17' E 014°23'0 0.0
2017-May-12 12:30N 67°17' E 014°23'0 0.0
2017-May-12 12:00N 67°17' E 014°23'0 0.0
2017-May-12 11:30N 67°17' E 014°23'0 0.0
2017-May-12 11:00N 67°17' E 014°23'0 0.0
2017-May-12 10:30N 67°17' E 014°23'0 0.0
2017-May-12 10:00N 67°17' E 014°23'0 0.0
2017-May-12 09:30N 67°17' E 014°23'0 0.0
2017-May-12 09:00N 67°17' E 014°23'0 0.0
2017-May-12 08:30N 67°17' E 014°23'0 0.0
2017-May-12 08:00N 67°17' E 014°23'0 0.0
2017-May-12 07:30N 67°17' E 014°23'0 0.0
2017-May-12 07:00N 67°17' E 014°23'0 0.0
2017-May-12 06:30N 67°17' E 014°23'0 0.0
2017-May-12 06:00N 67°17' E 014°23'0 0.0
2017-May-12 05:30N 67°17' E 014°23'0 0.0
2017-May-12 05:00N 67°17' E 014°23'0 0.0
2017-May-12 04:30N 67°17' E 014°23'0 0.0
2017-May-12 04:00N 67°17' E 014°23'0 0.0
2017-May-12 03:30N 67°17' E 014°23'0 0.0
2017-May-12 03:00N 67°17' E 014°23'0 0.0
2017-May-12 02:30N 67°17' E 014°23'0 0.0
2017-May-12 02:00N 67°17' E 014°23'0 0.0
2017-May-12 01:30N 67°17' E 014°23'0 0.0
2017-May-12 01:00N 67°17' E 014°23'0 0.0
2017-May-12 00:30N 67°17' E 014°23'0 0.0
2017-May-12 00:00N 67°17' E 014°23'0 0.0
2017-May-11 23:30N 67°17' E 014°23'0 0.0
2017-May-11 23:00N 67°17' E 014°23'0 0.0
2017-May-11 22:30N 67°17' E 014°23'0 0.0
2017-May-11 22:00N 67°17' E 014°23'0 0.0
2017-May-11 21:30N 67°17' E 014°23'0 0.0
2017-May-11 21:00N 67°17' E 014°23'0 0.0
2017-May-11 20:30N 67°17' E 014°23'0 0.0
2017-May-11 20:00N 67°17' E 014°23'0 0.0
2017-May-11 19:30N 67°17' E 014°23'0 0.0
2017-May-11 19:00N 67°17' E 014°23'0 0.0
2017-May-11 18:30N 67°17' E 014°23'0 0.0
2017-May-11 18:00N 67°17' E 014°23'0 0.0
2017-May-11 17:30N 67°17' E 014°23'0 0.0
2017-May-11 17:00N 67°17' E 014°23'0 0.0
2017-May-11 16:30N 67°17' E 014°23'0 0.0
2017-May-11 16:00N 67°17' E 014°23'0 0.0
2017-May-11 15:30N 67°17' E 014°23'0 0.0
2017-May-11 15:00N 67°17' E 014°23'0 0.0
2017-May-11 14:00N 67°17' E 014°23'0 0.7
2017-May-11 13:31N 67°17' E 014°23'1 2.1
2017-May-11 13:00N 67°17' E 014°20'1 1.8
2017-May-11 12:30N 67°17' E 014°22'0 0.2
2017-May-11 12:01N 67°17' E 014°22'1 2.2
2017-May-11 11:30N 67°17' E 014°20'0 0.2
2017-May-11 11:01N 67°17' E 014°20'0 0.4
2017-May-11 10:31N 67°17' E 014°20'2 3.6
2017-May-11 10:00N 67°18' E 014°23'5 9.4
2017-May-11 09:30N 67°23' E 014°25'6 9.2
2017-May-11 08:50N 67°29' E 014°28'3 9.4
2017-May-11 08:28N 67°32' E 014°30'10 9.2
2017-May-11 07:24N 67°42' E 014°31'105 7.7
2017-May-10 17:44N 69°05' E 017°25'2 9.7
2017-May-10 17:30N 69°06' E 017°31'5 9.9
2017-May-10 17:00N 69°08' E 017°44'5 9.9
2017-May-10 16:30N 69°10' E 017°56'4 7.3
2017-May-10 16:00N 69°14' E 017°57'5 9.5
2017-May-10 15:29N 69°19' E 017°58'  

Dump ship's entire track history